createdAt,value
2019-01-22T00:02:15.412Z,80.95
2019-01-22T00:04:43.666Z,80.40
2019-01-22T00:07:11.928Z,91.50
2019-01-22T00:09:40.558Z,79.25
2019-01-22T00:12:08.892Z,84.65
2019-01-22T00:14:37.170Z,77.67
2019-01-22T00:17:05.414Z,81.45
2019-01-22T00:19:33.728Z,83.47
2019-01-22T00:22:01.982Z,82.75
2019-01-22T00:24:30.602Z,79.60
2019-01-22T00:26:58.877Z,78.50
2019-01-22T00:29:27.202Z,86.40
2019-01-22T00:31:55.463Z,78.28
2019-01-22T00:34:23.717Z,89.35
2019-01-22T00:36:51.995Z,80.30
2019-01-22T00:39:20.635Z,74.03
2019-01-22T00:41:48.970Z,78.57
2019-01-22T00:44:17.230Z,81.92
2019-01-22T00:46:45.516Z,80.75
2019-01-22T00:49:13.772Z,85.30
2019-01-22T00:51:42.017Z,73.70
2019-01-22T00:54:10.375Z,74.37
2019-01-22T00:56:38.696Z,83.45
2019-01-22T00:59:06.963Z,83.00
2019-01-22T01:01:35.202Z,80.38
2019-01-22T01:04:03.472Z,77.82
2019-01-22T01:06:31.718Z,69.72
2019-01-22T01:08:59.969Z,77.97
2019-01-22T01:11:28.217Z,76.02
2019-01-22T01:13:56.533Z,73.57
2019-01-22T01:16:24.830Z,76.30
2019-01-22T01:18:53.124Z,81.92
2019-01-22T01:21:21.393Z,77.80
2019-01-22T01:23:49.643Z,81.02
2019-01-22T01:26:17.915Z,77.05
2019-01-22T01:28:46.168Z,79.70
2019-01-22T01:31:14.422Z,75.00
2019-01-22T01:33:42.670Z,77.25
2019-01-22T01:36:10.919Z,81.90
2019-01-22T01:38:39.170Z,84.67
2019-01-22T01:41:07.427Z,72.67
2019-01-22T01:43:35.702Z,79.87
2019-01-22T01:46:03.976Z,81.40
2019-01-22T01:48:32.227Z,74.40
2019-01-22T01:51:00.478Z,71.67
2019-01-22T01:53:28.816Z,79.17
2019-01-22T01:55:57.173Z,80.15
2019-01-22T01:58:25.424Z,97.42
2019-01-22T02:00:53.689Z,88.12
2019-01-22T02:03:21.949Z,91.15
2019-01-22T02:05:50.186Z,92.62
2019-01-22T02:08:18.429Z,87.75
2019-01-22T02:10:46.703Z,90.45
2019-01-22T02:13:14.970Z,90.97
2019-01-22T02:15:49.137Z,84.32
2019-01-22T02:18:45.079Z,87.75
2019-01-22T02:21:19.141Z,93.40
2019-01-22T02:23:56.286Z,89.25
2019-01-22T02:26:33.849Z,89.55
2019-01-22T02:29:08.017Z,94.75
2019-01-22T02:31:42.058Z,99.37
2019-01-22T02:34:16.159Z,97.60
2019-01-22T02:36:56.462Z,97.95
2019-01-22T02:39:39.789Z,92.92
2019-01-22T02:42:17.202Z,91.37
2019-01-22T02:45:00.965Z,88.27
2019-01-22T02:47:32.543Z,86.75
2019-01-22T02:50:20.374Z,85.45
2019-01-22T02:52:57.622Z,82.53
2019-01-22T02:55:29.158Z,85.30
2019-01-22T02:58:15.725Z,89.70
2019-01-22T03:01:06.625Z,91.15
2019-01-22T03:03:38.224Z,90.57
2019-01-22T03:06:26.185Z,98.37
2019-01-22T03:09:20.359Z,93.82
2019-01-22T03:11:51.879Z,88.03
2019-01-22T03:14:29.163Z,94.52
2019-01-22T03:17:18.797Z,85.55
2019-01-22T03:19:53.255Z,87.60
2019-01-22T03:22:24.747Z,84.62
2019-01-22T03:25:08.197Z,89.00
2019-01-22T03:27:54.774Z,93.17
2019-01-22T03:30:46.076Z,97.78
2019-01-22T03:33:46.628Z,95.83
2019-01-22T03:36:39.534Z,94.28
2019-01-22T03:39:14.082Z,97.57
2019-01-22T03:41:48.392Z,86.37
2019-01-22T03:44:29.208Z,99.45
2019-01-22T03:47:23.761Z,94.70
2019-01-22T03:49:58.022Z,98.82
2019-01-22T03:52:44.574Z,91.47
2019-01-22T03:55:39.630Z,90.85
2019-01-22T03:58:07.954Z,90.40
2019-01-22T04:00:38.028Z,92.05
2019-01-22T04:03:06.278Z,90.42
2019-01-22T04:05:34.525Z,84.10
2019-01-22T04:08:02.814Z,88.85
2019-01-22T04:10:31.121Z,82.25
2019-01-22T04:12:59.375Z,79.85
2019-01-22T04:15:33.867Z,77.27
2019-01-22T04:18:02.114Z,70.52
2019-01-22T04:20:30.371Z,79.80
2019-01-22T04:22:58.781Z,72.75
2019-01-22T04:25:32.968Z,71.75
2019-01-22T04:28:10.513Z,71.85
2019-01-22T04:30:42.048Z,71.47
2019-01-22T04:33:46.799Z,73.47
2019-01-22T04:36:20.859Z,75.25
2019-01-22T04:39:01.192Z,82.40
2019-01-22T04:41:49.549Z,73.25
2019-01-22T04:44:26.843Z,68.15
2019-01-22T04:47:04.389Z,72.87
2019-01-22T04:49:52.317Z,65.45
2019-01-22T04:52:26.397Z,68.72
2019-01-22T04:55:09.756Z,72.85
2019-01-22T04:57:46.850Z,68.15
2019-01-22T05:00:39.564Z,70.22
2019-01-22T05:03:11.106Z,69.85
2019-01-22T05:05:51.432Z,75.50
2019-01-22T05:08:53.302Z,74.75
2019-01-22T05:11:24.800Z,74.72
2019-01-22T05:13:59.243Z,78.50
2019-01-22T05:16:42.550Z,72.40
2019-01-22T05:19:16.717Z,71.07
2019-01-22T05:22:11.155Z,72.85
2019-01-22T05:25:00.769Z,65.97
2019-01-22T05:28:08.353Z,65.87
2019-01-22T05:30:39.900Z,66.57
2019-01-22T05:33:11.408Z,65.35
2019-01-22T05:36:03.822Z,77.35
2019-01-22T05:38:52.017Z,65.78
2019-01-22T05:41:32.179Z,63.45
2019-01-22T05:44:12.457Z,74.75
2019-01-22T05:46:53.083Z,68.42
2019-01-22T05:49:44.404Z,67.58
2019-01-22T05:52:18.569Z,66.72
2019-01-22T05:54:56.221Z,73.65
2019-01-22T05:57:26.823Z,58.02
2019-01-22T06:00:03.813Z,74.90
2019-01-22T06:02:35.361Z,70.83
2019-01-22T06:05:09.536Z,70.05
2019-01-22T06:07:57.805Z,75.90
2019-01-22T06:10:51.910Z,78.70
2019-01-22T06:13:23.436Z,74.47
2019-01-22T06:16:17.448Z,68.35
2019-01-22T06:18:54.905Z,70.08
2019-01-22T06:21:50.046Z,71.40
2019-01-22T06:24:33.299Z,79.97
2019-01-22T06:27:03.838Z,68.62
2019-01-22T06:29:59.284Z,71.60
2019-01-22T06:32:45.160Z,67.17
2019-01-22T06:35:22.658Z,71.17
2019-01-22T06:38:10.650Z,47.25
2019-01-22T06:40:59.138Z,58.50
2019-01-22T06:43:39.569Z,59.13
2019-01-22T06:46:16.592Z,55.85
2019-01-22T06:48:50.883Z,67.25
2019-01-22T06:51:22.384Z,66.87
2019-01-22T06:53:59.533Z,56.73
2019-01-22T06:56:40.008Z,71.00
2019-01-22T06:59:23.435Z,67.75
2019-01-22T07:01:57.487Z,78.30
2019-01-22T07:04:34.662Z,67.65
2019-01-22T07:07:22.933Z,82.62
2019-01-22T07:10:03.113Z,70.22
2019-01-22T07:12:34.613Z,35.10
2019-01-22T07:15:17.938Z,41.90
2019-01-22T07:18:09.132Z,66.77
2019-01-22T07:20:55.006Z,77.80
2019-01-22T07:23:35.217Z,44.53
2019-01-22T07:26:29.188Z,68.42
2019-01-22T07:29:06.207Z,66.45
2019-01-22T07:31:46.706Z,59.60
2019-01-22T07:34:34.696Z,45.63
2019-01-22T07:37:21.306Z,74.60
2019-01-22T07:39:55.632Z,63.60
2019-01-22T07:42:30.025Z,58.73
2019-01-22T07:45:19.749Z,52.98
2019-01-22T07:47:54.166Z,65.50
2019-01-22T07:50:25.713Z,61.70
2019-01-22T07:53:00.024Z,55.17
2019-01-22T07:55:37.029Z,66.42
2019-01-22T07:58:26.634Z,65.00
2019-01-22T08:01:19.282Z,40.00
2019-01-22T08:04:13.469Z,36.08
2019-01-22T08:06:52.345Z,68.22
2019-01-22T08:09:38.937Z,50.75
2019-01-22T08:12:32.869Z,66.82
2019-01-22T08:15:23.998Z,54.45
2019-01-22T08:18:10.654Z,45.03
2019-01-22T08:21:01.881Z,73.33
2019-01-22T08:23:36.158Z,33.23
2019-01-22T08:26:22.610Z,36.70
2019-01-22T08:31:59.151Z,56.83
2019-01-22T08:34:33.455Z,28.10
2019-01-22T08:37:10.936Z,43.92
2019-01-22T08:39:54.241Z,60.17
2019-01-22T08:42:31.574Z,36.85
2019-01-22T08:45:21.165Z,60.88
2019-01-22T08:48:11.815Z,16.60
2019-01-22T08:50:43.349Z,33.53
2019-01-22T08:53:46.930Z,57.95
2019-01-22T08:56:30.582Z,39.27
2019-01-22T08:59:04.648Z,26.75
2019-01-22T09:01:42.195Z,37.78
2019-01-22T09:04:33.111Z,43.58
2019-01-22T09:07:13.474Z,49.18
2019-01-22T09:09:50.629Z,55.52
2019-01-22T09:12:27.665Z,40.78
2019-01-22T09:15:26.610Z,33.42
2019-01-22T09:18:19.324Z,40.83
2019-01-22T09:20:56.429Z,42.45
2019-01-22T09:23:42.700Z,39.88
2019-01-22T09:26:32.046Z,51.92
2019-01-22T09:29:24.687Z,42.95
2019-01-22T09:32:11.301Z,48.00
2019-01-22T09:34:48.910Z,25.43
2019-01-22T09:37:20.429Z,42.73
2019-01-22T09:39:49.314Z,19.60
2019-01-22T09:42:17.613Z,26.33
2019-01-22T09:44:45.869Z,43.05
2019-01-22T09:47:14.145Z,40.45
2019-01-22T09:49:42.381Z,36.88
2019-01-22T09:52:10.650Z,33.02
2019-01-22T09:54:38.992Z,44.25
2019-01-22T09:58:34.848Z,33.58
2019-01-22T10:01:03.110Z,44.73
2019-01-22T10:03:31.370Z,45.43
2019-01-22T10:05:59.621Z,46.77
2019-01-22T10:08:27.875Z,41.37
2019-01-22T10:10:56.109Z,47.80
2019-01-22T10:13:24.369Z,50.65
2019-01-22T10:15:52.622Z,41.30
2019-01-22T10:18:20.879Z,44.83
2019-01-22T10:20:49.130Z,43.38
2019-01-22T10:23:17.375Z,39.90
2019-01-22T10:25:45.640Z,44.20
2019-01-22T10:28:13.880Z,43.58
2019-01-22T10:30:42.142Z,48.28
2019-01-22T10:33:10.456Z,40.08
2019-01-22T10:35:38.697Z,43.35
2019-01-22T10:38:06.958Z,44.30
2019-01-22T10:40:35.213Z,45.17
2019-01-22T10:43:09.180Z,46.00
2019-01-22T10:45:33.451Z,42.73
2019-01-22T10:48:01.694Z,39.65
2019-01-22T10:50:29.932Z,40.48
2019-01-22T10:52:58.211Z,41.00
2019-01-22T10:55:26.448Z,40.15
2019-01-22T10:57:54.709Z,44.23
2019-01-22T11:00:25.851Z,39.10
2019-01-22T11:02:54.123Z,42.00
2019-01-22T11:05:28.408Z,37.15
2019-01-22T11:07:56.671Z,37.15
2019-01-22T11:10:24.924Z,40.80
2019-01-22T11:12:53.183Z,34.95
2019-01-22T11:15:27.661Z,37.58
2019-01-22T11:17:51.397Z,38.73
2019-01-22T11:20:24.858Z,35.98
2019-01-22T11:22:53.102Z,38.75
2019-01-22T11:25:43.805Z,31.55
2019-01-22T11:28:10.841Z,35.92
2019-01-22T11:30:39.098Z,33.38
2019-01-22T11:33:07.358Z,32.65
2019-01-22T11:35:35.632Z,33.35
2019-01-22T11:38:05.342Z,36.05
2019-01-22T11:40:36.152Z,34.13
2019-01-22T11:43:04.478Z,36.00
2019-01-22T11:45:32.773Z,31.48
2019-01-22T11:48:01.009Z,32.88
2019-01-22T11:50:29.302Z,33.53
2019-01-22T11:52:57.547Z,36.35
2019-01-22T11:55:25.812Z,32.65
2019-01-22T11:57:54.083Z,31.75
2019-01-22T12:00:29.578Z,31.33
2019-01-22T12:02:57.849Z,32.98
2019-01-22T12:05:26.085Z,35.00
2019-01-22T12:07:54.333Z,35.68
2019-01-22T12:10:22.631Z,29.80
2019-01-22T12:12:50.927Z,34.27
2019-01-22T12:15:19.916Z,37.35
2019-01-22T12:17:48.261Z,37.08
2019-01-22T12:20:19.776Z,34.30
2019-01-22T12:22:48.253Z,35.95
2019-01-22T12:25:16.505Z,33.95
2019-01-22T12:27:44.764Z,33.00
2019-01-22T12:30:19.365Z,32.70
2019-01-22T12:32:47.652Z,33.28
2019-01-22T12:35:16.365Z,37.38
2019-01-22T12:37:44.601Z,33.48
2019-01-22T12:40:23.605Z,34.15
2019-01-22T12:42:51.908Z,29.72
2019-01-22T12:45:25.130Z,34.05
2019-01-22T12:47:53.385Z,32.15
2019-01-22T12:50:25.905Z,37.33
2019-01-22T12:52:53.876Z,32.40
2019-01-22T12:55:22.183Z,31.65
2019-01-22T12:57:50.449Z,29.57
2019-01-22T13:00:30.254Z,30.97
2019-01-22T13:02:58.592Z,34.85
2019-01-22T13:05:42.176Z,34.50
2019-01-22T13:08:10.411Z,30.52
2019-01-22T13:10:38.739Z,32.58
2019-01-22T13:13:06.991Z,31.90
2019-01-22T13:15:35.251Z,30.17
2019-01-22T13:18:03.504Z,32.70
2019-01-22T13:20:31.789Z,29.40
2019-01-22T13:23:00.053Z,30.80
2019-01-22T13:25:28.317Z,33.38
2019-01-22T13:27:56.566Z,31.20
2019-01-22T13:30:26.786Z,33.30
2019-01-22T13:32:55.049Z,33.85
2019-01-22T13:35:23.285Z,29.12
2019-01-22T13:37:51.574Z,34.43
2019-01-22T13:40:19.872Z,30.92
2019-01-22T13:42:48.142Z,33.05
2019-01-22T13:45:34.571Z,33.60
2019-01-22T13:48:05.058Z,31.15
2019-01-22T13:50:33.329Z,34.88
2019-01-22T13:53:01.601Z,32.98
2019-01-22T13:55:38.079Z,33.20
2019-01-22T13:58:06.394Z,37.35
2019-01-22T14:00:34.901Z,30.40
2019-01-22T14:03:03.173Z,37.28
2019-01-22T14:05:31.436Z,35.65
2019-01-22T14:07:59.697Z,36.28
2019-01-22T14:10:27.958Z,33.78
2019-01-22T14:12:56.737Z,34.33
2019-01-22T14:15:34.234Z,35.13
2019-01-22T14:18:02.475Z,33.78
2019-01-22T14:20:30.727Z,32.45
2019-01-22T14:22:58.999Z,35.17
2019-01-22T14:25:27.275Z,36.73
2019-01-22T14:27:55.521Z,38.90
2019-01-22T14:30:35.364Z,32.63
2019-01-22T14:33:03.786Z,33.88
2019-01-22T14:35:32.041Z,36.42
2019-01-22T14:38:00.289Z,38.92
2019-01-22T14:40:29.044Z,37.58
2019-01-22T14:42:57.281Z,38.05
2019-01-22T14:45:25.526Z,35.20
2019-01-22T14:47:53.779Z,37.03
2019-01-22T14:50:24.210Z,37.25
2019-01-22T14:52:52.505Z,42.53
2019-01-22T14:55:20.762Z,36.33
2019-01-22T14:57:49.027Z,36.85
2019-01-22T15:00:25.198Z,41.58
2019-01-22T15:05:21.368Z,39.58
2019-01-22T15:07:49.606Z,36.40
2019-01-22T15:10:18.406Z,41.63
2019-01-22T15:12:49.198Z,41.70
2019-01-22T15:15:18.483Z,41.25
2019-01-22T15:17:46.741Z,49.08
2019-01-22T15:20:22.782Z,45.33
2019-01-22T15:22:51.129Z,44.00
2019-01-22T15:25:19.397Z,49.10
2019-01-22T15:27:51.618Z,45.45
2019-01-22T15:30:25.631Z,44.45
2019-01-22T15:32:53.885Z,44.85
2019-01-22T15:35:22.124Z,39.83
2019-01-22T15:37:50.381Z,44.73
2019-01-22T15:40:25.664Z,44.70
2019-01-22T15:42:53.962Z,54.85
2019-01-22T15:45:22.419Z,47.00
2019-01-22T15:47:50.695Z,49.93
2019-01-22T15:50:20.480Z,42.13
2019-01-22T15:52:48.734Z,51.10
2019-01-22T15:55:28.185Z,43.52
2019-01-22T15:57:56.439Z,51.68
2019-01-22T16:00:26.230Z,40.45
2019-01-22T16:02:54.470Z,48.78
2019-01-22T16:05:22.754Z,46.00
2019-01-22T16:07:51.020Z,46.63
2019-01-22T16:10:19.260Z,44.77
2019-01-22T16:12:47.526Z,43.83
2019-01-22T16:15:17.718Z,54.38
2019-01-22T16:17:45.972Z,42.48
2019-01-22T16:20:17.115Z,49.20
2019-01-22T16:22:45.453Z,51.85
2019-01-22T16:25:13.965Z,48.73
2019-01-22T16:27:42.270Z,49.55
2019-01-22T16:30:13.550Z,56.33
2019-01-22T16:32:41.828Z,52.78
2019-01-22T16:35:12.446Z,48.08
2019-01-22T16:37:40.785Z,52.75
2019-01-22T16:40:11.639Z,50.28
2019-01-22T16:42:39.938Z,55.15
2019-01-22T16:45:14.522Z,51.65
2019-01-22T16:47:42.754Z,52.20
2019-01-22T16:50:13.157Z,51.65
2019-01-22T16:52:41.411Z,51.88
2019-01-22T16:55:13.219Z,54.42
2019-01-22T16:57:41.450Z,52.58
2019-01-22T17:00:15.839Z,62.75
2019-01-22T17:02:44.096Z,54.27
2019-01-22T17:05:12.325Z,52.25
2019-01-22T17:07:40.597Z,52.00
2019-01-22T17:10:12.261Z,58.95
2019-01-22T17:12:40.597Z,52.13
2019-01-22T17:15:10.273Z,54.83
2019-01-22T17:17:38.535Z,50.05
2019-01-22T17:20:17.256Z,55.35
2019-01-22T17:22:43.133Z,55.15
2019-01-22T17:25:11.394Z,51.80
2019-01-22T17:27:39.658Z,57.70
2019-01-22T17:30:11.259Z,52.60
2019-01-22T17:32:41.140Z,58.85
2019-01-22T17:35:10.510Z,52.08
2019-01-22T17:37:38.754Z,55.28
2019-01-22T17:40:10.290Z,55.35
2019-01-22T17:42:38.550Z,50.67
2019-01-22T17:45:08.066Z,57.23
2019-01-22T17:47:36.409Z,56.58
2019-01-22T17:50:11.041Z,54.70
2019-01-22T17:52:37.893Z,54.27
2019-01-22T17:55:09.220Z,54.93
2019-01-22T17:57:37.463Z,51.45
2019-01-22T18:00:09.235Z,49.48
2019-01-22T18:02:37.505Z,50.95
2019-01-22T18:05:07.593Z,53.63
2019-01-22T18:07:35.841Z,49.33
2019-01-22T18:10:06.752Z,53.75
2019-01-22T18:12:35.035Z,60.98
2019-01-22T18:15:03.283Z,55.75
2019-01-22T18:17:31.564Z,50.33
2019-01-22T18:19:59.914Z,53.20
2019-01-22T18:22:28.179Z,51.18
2019-01-22T18:24:56.448Z,53.38
2019-01-22T18:27:24.719Z,44.55
2019-01-22T18:30:13.577Z,56.92
2019-01-22T18:32:41.821Z,55.85
2019-01-22T18:35:15.864Z,55.28
2019-01-22T18:37:44.110Z,59.20
2019-01-22T18:40:14.097Z,56.15
2019-01-22T18:42:42.376Z,59.55
2019-01-22T18:45:13.576Z,54.90
2019-01-22T18:47:41.829Z,52.40
2019-01-22T18:50:13.369Z,53.02
2019-01-22T18:52:41.633Z,47.93
2019-01-22T18:55:09.880Z,49.63
2019-01-22T18:57:38.132Z,54.73
2019-01-22T19:00:14.940Z,55.98
2019-01-22T19:02:43.217Z,45.40
2019-01-22T19:05:11.457Z,51.60
2019-01-22T19:07:39.888Z,55.25
2019-01-22T19:10:14.015Z,54.13
2019-01-22T19:12:42.257Z,53.87
2019-01-22T19:15:13.555Z,59.70
2019-01-22T19:17:43.460Z,55.45
2019-01-22T19:20:12.279Z,60.92
2019-01-22T19:22:40.547Z,53.80
2019-01-22T19:25:14.653Z,58.20
2019-01-22T19:27:43.186Z,58.15
2019-01-22T19:30:14.469Z,55.52
2019-01-22T19:32:42.711Z,56.50
2019-01-22T19:35:11.071Z,58.92
2019-01-22T19:37:39.360Z,54.93
2019-01-22T19:40:10.777Z,55.75
2019-01-22T19:42:39.042Z,52.43
2019-01-22T19:45:13.269Z,57.40
2019-01-22T19:47:41.549Z,49.08
2019-01-22T19:50:12.475Z,52.43
2019-01-22T19:52:40.847Z,50.95
2019-01-22T19:55:10.045Z,57.50
2019-01-22T19:57:41.205Z,57.08
2019-01-22T20:00:17.957Z,52.30
2019-01-22T20:02:46.299Z,62.62
2019-01-22T20:05:14.606Z,56.53
2019-01-22T20:07:42.939Z,52.65
2019-01-22T20:10:13.833Z,53.20
2019-01-22T20:12:42.108Z,58.08
2019-01-22T20:15:12.990Z,54.88
2019-01-22T20:17:41.336Z,53.17
2019-01-22T20:20:12.621Z,59.75
2019-01-22T20:22:40.881Z,51.30
2019-01-22T20:25:09.150Z,55.95
2019-01-22T20:27:37.397Z,54.40
2019-01-22T20:30:18.030Z,59.88
2019-01-22T20:32:46.323Z,60.85
2019-01-22T20:35:14.614Z,52.83
2019-01-22T20:37:43.004Z,54.63
2019-01-22T20:40:13.596Z,48.68
2019-01-22T20:42:41.838Z,49.55
2019-01-22T20:45:27.354Z,51.85
2019-01-22T20:47:55.616Z,48.80
2019-01-22T20:50:23.869Z,51.65
2019-01-22T20:52:52.142Z,56.28
2019-01-22T20:55:22.220Z,50.50
2019-01-22T20:57:54.806Z,57.60
2019-01-22T21:00:23.028Z,52.70
2019-01-22T21:02:51.374Z,58.78
2019-01-22T21:05:30.521Z,61.28
2019-01-22T21:07:58.807Z,54.83
2019-01-22T21:10:29.650Z,54.70
2019-01-22T21:12:57.901Z,46.73
2019-01-22T21:15:26.313Z,55.85
2019-01-22T21:17:54.560Z,56.90
2019-01-22T21:20:22.842Z,53.38
2019-01-22T21:22:51.400Z,47.88
2019-01-22T21:25:21.553Z,59.88
2019-01-22T21:27:49.793Z,57.58
2019-01-22T21:30:29.403Z,58.08
2019-01-22T21:32:57.639Z,54.00
2019-01-22T21:35:25.979Z,58.00
2019-01-22T21:37:54.268Z,58.25
2019-01-22T21:40:22.521Z,61.50
2019-01-22T21:42:50.972Z,56.05
2019-01-22T21:45:21.653Z,50.88
2019-01-22T21:47:49.883Z,54.38
2019-01-22T21:50:18.195Z,56.98
2019-01-22T21:52:46.556Z,52.20
2019-01-22T21:55:22.174Z,56.98
2019-01-22T21:57:50.504Z,52.80
2019-01-22T22:00:24.106Z,56.70
2019-01-22T22:02:52.346Z,58.00
2019-01-22T22:05:22.745Z,59.05
2019-01-22T22:07:51.014Z,52.78
2019-01-22T22:10:20.497Z,50.43
2019-01-22T22:12:48.757Z,54.48
2019-01-22T22:15:19.254Z,61.40
2019-01-22T22:17:47.537Z,49.35
2019-01-22T22:20:16.615Z,56.42
2019-01-22T22:22:44.963Z,60.43
2019-01-22T22:25:21.846Z,56.85
2019-01-22T22:27:50.114Z,53.55
2019-01-22T22:30:33.068Z,56.40
2019-01-22T22:33:01.331Z,60.67
2019-01-22T22:35:29.580Z,49.55
2019-01-22T22:37:59.227Z,58.78
2019-01-22T22:40:27.673Z,53.45
2019-01-22T22:42:55.926Z,52.98
2019-01-22T22:45:24.347Z,51.65
2019-01-22T22:47:53.258Z,52.53
2019-01-22T22:50:27.083Z,53.17
2019-01-22T22:52:55.367Z,53.02
2019-01-22T22:55:23.640Z,50.50
2019-01-22T22:57:51.968Z,54.48
2019-01-22T23:00:30.266Z,57.27
2019-01-22T23:02:58.634Z,58.65
2019-01-22T23:05:26.891Z,53.05
2019-01-22T23:07:55.159Z,57.62
2019-01-22T23:10:23.429Z,54.38
2019-01-22T23:12:51.697Z,53.90
2019-01-22T23:15:19.972Z,55.43
2019-01-22T23:17:48.220Z,55.95
2019-01-22T23:20:16.484Z,53.30
2019-01-22T23:22:44.760Z,60.67
2019-01-22T23:25:13.000Z,51.77
2019-01-22T23:27:41.278Z,59.03
2019-01-22T23:30:12.075Z,57.15
2019-01-22T23:32:40.405Z,56.08
2019-01-22T23:35:09.124Z,49.73
2019-01-22T23:37:37.414Z,59.67
2019-01-22T23:40:08.989Z,62.13
2019-01-22T23:42:37.246Z,51.55
2019-01-22T23:45:08.842Z,49.23
2019-01-22T23:47:37.151Z,59.35
2019-01-22T23:50:10.179Z,55.60
2019-01-22T23:52:38.505Z,60.50
2019-01-22T23:55:08.116Z,55.28
2019-01-22T23:57:36.420Z,51.63
